Sanborn, Wisconsin
Current Conditions -  °F | °C
As of 6:53 AM on Thursday 30 Oct 2014 (Local Time) from KASX Reporting Station
Overcast Overcast  
Wind Chill: 38°   Ceiling: 2300
Heat Index: 38°   Visibility: 10mi
Dew Point: 33°   Wind: 3mph
Humidity: 83%   Direction: 220°SW
Pressure: 30.06"   Gusts: NA
Location:  46.543°N, 90.8706°W
Report Text: KASX 301153Z AUTO 22003KT 10SM OVC023 03/01 A3006 RMK AO2 SLP188 T00330006 10044 20033 55003
Loading
Personal Weather Stations






























Interactive Weather Map
Tropical Storm Tracking
New forecast layout! Learn more

10-Day Weather Forecast

Advertisements
Track Severe Weather on mobile